Time;durP1;ratioP1;P1;durP2;ratioP2;P2;SDS_P1;SDS_P2;PMS_P1;PMS_P2;Temp;Humidity;BMP_temperature;BMP_pressure;BME280_temperature;BME280_humidity;BME280_pressure;Samples;Min_cycle;Max_cycle;Signal;HPM_P1;HPM_P2
2022/07/06 00:01:21;;;;;;;15.18;6.60;;;;;;;24.48;51.16;99238.22;4980377;28;20045;-94
2022/07/06 00:03:46;;;;;;;14.88;6.75;;;;;;;24.55;53.56;99241.94;4979686;28;20480;-95
2022/07/06 00:06:12;;;;;;;13.70;6.88;;;;;;;24.44;53.58;99240.91;4980319;28;20125;-93
2022/07/06 00:08:38;;;;;;;13.82;6.90;;;;;;;24.47;54.99;99240.19;4980069;28;20400;-94
2022/07/06 00:11:03;;;;;;;17.60;7.18;;;;;;;24.51;55.86;99234.75;4979660;28;20033;-94
2022/07/06 00:13:29;;;;;;;13.38;6.75;;;;;;;24.30;57.46;99243.38;4980526;28;20464;-94
2022/07/06 00:15:54;;;;;;;13.48;7.63;;;;;;;24.29;57.17;99250.84;4979534;28;20080;-93
2022/07/06 00:18:20;;;;;;;9.55;6.70;;;;;;;24.32;57.36;99254.81;4979396;28;20033;-94
2022/07/06 00:20:45;;;;;;;12.40;7.07;;;;;;;24.32;57.75;99250.13;4980947;28;20064;-95
2022/07/06 00:23:14;;;;;;;10.38;6.85;;;;;;;24.21;57.94;99241.66;4967206;28;20026;-94
2022/07/06 00:25:39;;;;;;;11.00;6.72;;;;;;;24.25;58.26;99265.69;4980241;28;20128;-94
2022/07/06 00:28:05;;;;;;;12.07;7.22;;;;;;;24.24;58.18;99258.59;4980846;28;20465;-94
2022/07/06 00:30:30;;;;;;;12.27;6.72;;;;;;;24.08;58.39;99244.94;4979665;28;20026;-94
2022/07/06 00:32:57;;;;;;;13.95;6.72;;;;;;;24.05;58.62;99248.38;4980096;28;20037;-94
2022/07/06 00:35:26;;;;;;;12.43;6.95;;;;;;;24.07;59.27;99254.31;4980349;28;20121;-94
2022/07/06 00:37:51;;;;;;;10.73;6.72;;;;;;;23.84;59.58;99227.53;4979813;28;20073;-94
2022/07/06 00:40:17;;;;;;;14.77;6.75;;;;;;;23.93;59.29;99232.84;4979430;28;20488;-94
2022/07/06 00:42:44;;;;;;;10.90;6.85;;;;;;;23.94;59.36;99234.44;4979455;28;20052;-93
2022/07/06 00:45:10;;;;;;;14.70;7.50;;;;;;;23.94;59.19;99232.47;4980412;28;20019;-93
2022/07/06 00:47:35;;;;;;;10.05;6.65;;;;;;;23.87;59.23;99220.53;4979304;28;20088;-92
2022/07/06 00:50:13;;;;;;;10.98;7.05;;;;;;;23.96;59.06;99232.09;4979392;28;20026;-93
2022/07/06 00:52:42;;;;;;;10.57;6.70;;;;;;;24.07;58.38;99238.59;4982612;28;20397;-93
2022/07/06 00:55:08;;;;;;;9.35;6.70;;;;;;;23.91;58.98;99215.91;4979995;28;20289;-93
2022/07/06 00:57:34;;;;;;;11.82;6.70;;;;;;;23.84;58.77;99222.03;4995531;28;20030;-93
2022/07/06 00:59:59;;;;;;;10.02;6.75;;;;;;;23.85;58.39;99209.91;4979251;28;20022;-93
2022/07/06 01:02:30;;;;;;;8.20;6.65;;;;;;;23.74;59.08;99208.84;4979283;28;20045;-93
2022/07/06 01:04:55;;;;;;;9.88;6.40;;;;;;;23.91;58.10;99216.69;4979732;28;20046;-93
2022/07/06 01:07:21;;;;;;;10.73;5.90;;;;;;;23.92;58.44;99212.00;4979538;28;20065;-92
2022/07/06 01:09:46;;;;;;;7.45;6.50;;;;;;;23.95;57.89;99209.31;4978772;28;20022;-93
2022/07/06 01:12:12;;;;;;;10.63;6.47;;;;;;;23.93;58.66;99221.84;4978976;28;20113;-92
2022/07/06 01:14:37;;;;;;;8.95;5.90;;;;;;;23.87;58.84;99217.78;4979156;28;20034;-93
2022/07/06 01:17:03;;;;;;;11.00;6.78;;;;;;;23.80;58.89;99221.16;4978810;28;20026;-92
2022/07/06 01:19:28;;;;;;;12.10;6.43;;;;;;;23.78;57.85;99209.72;4979744;28;20456;-93
2022/07/06 01:21:54;;;;;;;9.70;6.32;;;;;;;23.90;57.49;99217.84;4978631;28;20033;-92
2022/07/06 01:24:19;;;;;;;10.60;6.25;;;;;;;23.79;58.71;99217.63;4978783;28;20088;-93
2022/07/06 01:26:45;;;;;;;8.38;6.65;;;;;;;23.67;58.48;99204.00;4978412;28;20050;-93
2022/07/06 01:29:10;;;;;;;7.03;6.32;;;;;;;23.70;57.79;99208.78;4978655;28;20093;-93
2022/07/06 01:31:41;;;;;;;8.68;6.13;;;;;;;23.74;57.70;99195.91;4978111;28;20023;-94
2022/07/06 01:34:06;;;;;;;7.30;6.43;;;;;;;23.78;57.59;99196.81;4980181;28;20022;-93
2022/07/06 01:36:32;;;;;;;8.18;6.28;;;;;;;23.78;57.43;99191.31;4979101;28;20473;-94
2022/07/06 01:38:58;;;;;;;8.00;6.32;;;;;;;23.75;57.53;99185.69;4979046;28;20026;-93
2022/07/06 01:41:23;;;;;;;10.35;6.50;;;;;;;23.73;57.25;99179.75;4979278;28;20031;-93
2022/07/06 01:43:49;;;;;;;7.95;6.40;;;;;;;23.67;57.94;99173.75;4979247;28;20049;-93
2022/07/06 01:46:14;;;;;;;10.60;6.47;;;;;;;23.68;57.22;99175.34;4978627;28;20046;-93
2022/07/06 01:48:40;;;;;;;10.85;6.82;;;;;;;23.64;57.55;99173.66;4978863;28;20037;-93
2022/07/06 01:51:06;;;;;;;12.63;6.13;;;;;;;23.43;58.25;99176.75;4979291;28;20485;-93
2022/07/06 01:53:32;;;;;;;11.90;6.45;;;;;;;23.33;59.27;99189.91;4979402;28;20018;-93
2022/07/06 01:55:57;;;;;;;15.05;7.43;;;;;;;23.22;59.52;99190.81;4979842;28;20030;-92
2022/07/06 01:58:23;;;;;;;15.07;7.47;;;;;;;23.16;59.89;99184.81;4978789;28;20018;-93
2022/07/06 02:00:48;;;;;;;13.68;7.57;;;;;;;23.16;60.04;99191.09;4978634;28;20413;-92
2022/07/06 02:03:14;;;;;;;16.90;7.20;;;;;;;23.16;60.17;99202.09;4978238;28;20080;-93
2022/07/06 02:05:39;;;;;;;17.55;7.80;;;;;;;23.00;60.14;99185.59;4977882;28;20496;-92
2022/07/06 02:08:05;;;;;;;11.48;7.53;;;;;;;22.94;60.19;99197.22;4977786;28;20046;-92
2022/07/06 02:10:30;;;;;;;13.88;7.75;;;;;;;22.81;60.39;99177.31;4978387;28;20034;-93
2022/07/06 02:12:56;;;;;;;15.77;7.30;;;;;;;22.88;60.71;99198.63;4977693;28;20022;-92
2022/07/06 02:15:21;;;;;;;10.05;7.25;;;;;;;22.80;61.16;99190.22;4978426;28;20026;-94
2022/07/06 02:17:47;;;;;;;12.10;7.50;;;;;;;22.75;60.81;99176.78;4977686;28;20037;-93
2022/07/06 02:20:13;;;;;;;12.82;8.20;;;;;;;22.85;60.46;99185.59;4993871;28;20022;-93
2022/07/06 02:22:39;;;;;;;12.93;7.70;;;;;;;22.85;60.43;99199.34;4993488;28;20029;-93
2022/07/06 02:25:05;;;;;;;9.77;8.25;;;;;;;22.76;60.83;99183.06;4977836;28;20037;-93
2022/07/06 02:27:30;;;;;;;9.45;6.95;;;;;;;22.67;61.36;99185.19;4977590;28;20125;-93
2022/07/06 02:29:56;;;;;;;13.13;8.30;;;;;;;22.64;61.10;99177.66;4977474;28;20021;-93
2022/07/06 02:32:25;;;;;;;9.75;7.18;;;;;;;22.54;61.26;99162.53;4977361;28;20030;-92
2022/07/06 02:34:50;;;;;;;10.57;8.68;;;;;;;22.61;61.45;99176.41;4977388;28;20026;-92
2022/07/06 02:37:16;;;;;;;10.45;7.70;;;;;;;22.66;61.73;99178.09;4977170;28;20022;-95
2022/07/06 02:39:41;;;;;;;10.35;7.90;;;;;;;22.66;61.67;99169.84;4977167;28;20026;-95
2022/07/06 02:42:07;;;;;;;13.82;7.70;;;;;;;22.59;62.29;99175.97;4977500;28;20469;-94
2022/07/06 02:44:32;;;;;;;10.23;7.40;;;;;;;22.60;62.11;99183.06;4977166;28;20030;-93
2022/07/06 02:46:58;;;;;;;12.68;7.25;;;;;;;22.48;62.54;99170.22;4977332;28;20485;-94
2022/07/06 02:49:23;;;;;;;14.95;7.88;;;;;;;22.46;62.34;99161.53;4977430;28;20034;-94
2022/07/06 02:51:49;;;;;;;14.10;7.93;;;;;;;22.51;62.28;99169.50;4978480;28;20515;-92
2022/07/06 02:54:14;;;;;;;10.85;7.32;;;;;;;22.54;62.33;99171.56;4978178;28;20033;-92
2022/07/06 02:56:40;;;;;;;10.77;7.93;;;;;;;22.51;62.65;99164.00;4977999;28;20033;-94
2022/07/06 02:59:05;;;;;;;10.77;8.25;;;;;;;22.37;62.92;99153.50;4978380;28;20092;-95
2022/07/06 03:01:31;;;;;;;11.55;8.43;;;;;;;22.39;63.04;99167.66;4978577;28;20026;-94
2022/07/06 03:03:59;;;;;;;13.00;8.15;;;;;;;22.44;63.12;99174.03;4976868;28;20121;-94
2022/07/06 03:06:24;;;;;;;9.57;7.55;;;;;;;22.41;62.76;99164.53;4977055;28;20481;-94
2022/07/06 03:08:50;;;;;;;9.98;8.10;;;;;;;22.53;62.88;99186.41;4977323;28;20029;-94
2022/07/06 03:11:15;;;;;;;13.05;7.63;;;;;;;22.42;62.97;99166.13;4978540;28;20022;-93
2022/07/06 03:13:41;;;;;;;10.45;8.13;;;;;;;22.52;62.72;99170.31;4976822;28;20030;-94
2022/07/06 03:16:07;;;;;;;13.13;8.02;;;;;;;22.55;62.59;99186.84;4976926;28;20106;-94
2022/07/06 03:18:32;;;;;;;9.32;8.13;;;;;;;22.45;63.01;99175.59;4977236;28;20092;-93
2022/07/06 03:20:58;;;;;;;13.65;8.68;;;;;;;22.49;62.72;99190.22;4976610;28;20041;-94
2022/07/06 03:23:23;;;;;;;17.55;8.70;;;;;;;22.30;63.10;99179.94;4976929;28;20026;-93
2022/07/06 03:25:49;;;;;;;13.63;8.50;;;;;;;22.28;63.40;99179.50;4976574;28;20058;-94
2022/07/06 03:28:14;;;;;;;14.75;9.13;;;;;;;22.40;62.83;99195.88;4975973;28;20181;-93
2022/07/06 03:30:41;;;;;;;13.68;8.90;;;;;;;22.52;62.75;99200.50;4980196;28;20358;-96
2022/07/06 03:33:10;;;;;;;14.25;9.55;;;;;;;22.34;62.88;99203.56;4989241;28;20102;-96
2022/07/06 03:35:43;;;;;;;14.30;9.35;;;;;;;22.15;62.96;99182.25;5009278;28;20086;-96
2022/07/06 03:38:24;;;;;;;10.48;8.70;;;;;;;22.35;63.18;99182.41;5020936;28;20109;-96
2022/07/06 03:40:49;;;;;;;13.48;8.38;;;;;;;22.33;63.92;99190.19;4997481;28;20022;-96
2022/07/06 03:43:15;;;;;;;14.93;9.10;;;;;;;22.41;63.15;99191.97;4982139;28;20025;-95
2022/07/06 03:45:45;;;;;;;14.40;8.65;;;;;;;22.46;63.40;99199.16;4985081;28;20031;-96
2022/07/06 03:48:45;;;;;;;9.50;8.43;;;;;;;22.30;64.43;99205.41;4980869;28;20042;-96
2022/07/06 03:51:13;;;;;;;15.95;9.18;;;;;;;22.09;65.22;99205.59;5013000;28;20053;-96
2022/07/06 03:53:46;;;;;;;11.35;8.88;;;;;;;21.90;65.27;99184.31;5007952;28;20034;-96
2022/07/06 03:56:32;;;;;;;11.65;8.57;;;;;;;21.99;64.70;99201.41;5014542;28;20026;-96
2022/07/06 03:59:07;;;;;;;12.88;8.55;;;;;;;21.84;65.19;99177.50;5008724;28;20045;-96
2022/07/06 04:04:08;;;;;;;19.70;9.18;;;;;;;21.98;64.75;99177.88;4991286;23;1405906;-96
2022/07/06 04:06:34;;;;;;;15.13;8.82;;;;;;;21.98;64.65;99174.34;4991452;28;20573;-95
2022/07/06 04:09:00;;;;;;;14.18;8.88;;;;;;;22.01;64.60;99173.66;4994334;28;20033;-96
2022/07/06 04:11:27;;;;;;;18.55;9.07;;;;;;;22.08;64.26;99176.59;5014346;28;20029;-95
2022/07/06 04:13:56;;;;;;;21.48;9.50;;;;;;;22.00;64.81;99172.06;4997986;28;20097;-95
2022/07/06 04:16:22;;;;;;;11.75;8.68;;;;;;;22.01;65.03;99179.13;5012859;28;20013;-93
2022/07/06 04:18:48;;;;;;;17.85;9.60;;;;;;;22.17;64.74;99190.94;4993544;28;20372;-95
2022/07/06 04:21:14;;;;;;;22.15;9.80;;;;;;;22.12;64.34;99187.63;4992518;28;20036;-96
2022/07/06 04:23:39;;;;;;;24.73;10.70;;;;;;;22.03;64.11;99179.56;4991316;28;20022;-95
2022/07/06 04:26:05;;;;;;;16.60;9.68;;;;;;;22.05;64.55;99171.00;4992478;28;20049;-95
2022/07/06 04:28:30;;;;;;;16.85;10.05;;;;;;;22.13;64.85;99194.72;4991747;28;20029;-95
2022/07/06 04:30:56;;;;;;;16.30;9.85;;;;;;;22.20;64.37;99190.25;4999300;28;20037;-95
2022/07/06 04:34:34;;;;;;;;;;;;;;;;;;;;;
2022/07/06 04:42:57;;;;;;;16.55;7.57;;;;;;;22.74;60.97;99204.56;5571874;22;20045;-94
2022/07/06 04:45:23;;;;;;;19.75;10.23;;;;;;;22.81;61.29;99204.75;4990725;28;20385;-96
2022/07/06 04:47:48;;;;;;;11.63;8.07;;;;;;;22.79;61.59;99207.84;4988676;28;20037;-95
2022/07/06 04:50:14;;;;;;;13.57;8.02;;;;;;;22.83;61.05;99193.41;4988531;28;20033;-95
2022/07/06 04:52:39;;;;;;;14.32;8.18;;;;;;;22.96;60.99;99208.66;4987139;28;20044;-95
2022/07/06 04:55:11;;;;;;;9.57;7.07;;;;;;;23.03;59.63;99202.56;4986718;28;20025;-94
2022/07/06 04:57:36;;;;;;;11.60;6.78;;;;;;;23.00;59.59;99182.84;4990996;28;20029;-96
2022/07/06 05:00:03;;;;;;;15.10;8.07;;;;;;;23.19;60.64;99214.31;5006992;28;20049;-95
2022/07/06 05:02:29;;;;;;;12.07;7.63;;;;;;;23.26;59.73;99205.44;4988518;28;20184;-96
2022/07/06 05:07:32;;;;;;;15.63;7.63;;;;;;;23.39;60.07;99201.44;5089526;22;20058;-95
2022/07/06 05:09:57;;;;;;;12.75;7.35;;;;;;;23.54;59.27;99195.09;5012791;28;20032;-96
2022/07/06 05:12:25;;;;;;;12.77;7.22;;;;;;;23.70;59.19;99216.22;4990871;28;20116;-91
2022/07/06 05:14:51;;;;;;;20.88;7.70;;;;;;;23.64;59.37;99218.47;4989255;28;20053;-93
2022/07/06 05:17:22;;;;;;;19.92;9.48;;;;;;;23.82;58.46;99213.34;4990823;28;20036;-96
2022/07/06 05:19:48;;;;;;;13.68;7.75;;;;;;;23.87;57.97;99215.03;4994915;28;20046;-93
2022/07/06 05:22:13;;;;;;;9.85;6.68;;;;;;;23.74;58.50;99230.81;4983530;28;20033;-93
2022/07/06 05:24:41;;;;;;;11.65;7.63;;;;;;;23.66;59.58;99202.41;5023920;28;20056;-96
2022/07/06 05:27:07;;;;;;;11.45;7.18;;;;;;;23.94;58.85;99229.72;5029413;28;20037;-95
2022/07/06 05:29:33;;;;;;;19.10;8.95;;;;;;;23.93;59.16;99230.09;5009181;28;20025;-96
2022/07/06 05:32:02;;;;;;;13.00;7.22;;;;;;;23.99;57.73;99223.16;4992453;28;20056;-94
2022/07/06 05:34:33;;;;;;;9.40;6.95;;;;;;;23.99;57.73;99212.94;4990770;28;20380;-95
2022/07/06 05:37:24;;;;;;;10.45;6.50;;;;;;;24.15;57.50;99223.06;5012052;28;20349;-92
2022/07/06 05:40:08;;;;;;;12.57;7.15;;;;;;;24.22;58.19;99231.47;5000438;28;20148;-90
2022/07/06 05:42:33;;;;;;;13.80;6.43;;;;;;;24.25;57.94;99238.19;4993526;28;20022;-92
2022/07/06 05:44:59;;;;;;;8.18;6.35;;;;;;;24.24;57.42;99236.56;5005266;28;20030;-94
2022/07/06 05:50:11;;;;;;;6.55;5.95;;;;;;;24.25;56.94;99241.72;5022597;28;20036;-94
2022/07/06 05:52:43;;;;;;;10.70;7.95;;;;;;;24.18;57.04;99223.13;4992916;28;20464;-94
2022/07/06 05:55:09;;;;;;;13.80;8.02;;;;;;;24.34;57.54;99231.31;4986591;28;20329;-92
2022/07/06 05:57:35;;;;;;;10.88;6.80;;;;;;;24.42;56.91;99256.97;4984612;28;20179;-90
2022/07/06 06:00:01;;;;;;;22.58;16.48;;;;;;;24.45;56.35;99226.00;5000162;28;20038;-90
2022/07/06 06:02:26;;;;;;;13.30;6.35;;;;;;;24.60;56.16;99241.63;5017405;28;20093;-93
2022/07/06 06:04:55;;;;;;;8.77;6.15;;;;;;;24.76;56.53;99243.47;4985614;28;20037;-90
2022/07/06 06:07:20;;;;;;;11.00;7.00;;;;;;;25.02;55.26;99257.28;5008042;28;20100;-91
2022/07/06 06:09:49;;;;;;;14.65;8.32;;;;;;;25.00;55.16;99231.28;4981530;28;20033;-91
2022/07/06 06:12:15;;;;;;;8.73;5.68;;;;;;;25.18;54.31;99243.38;4982374;28;20038;-92
2022/07/06 06:14:40;;;;;;;9.98;5.97;;;;;;;25.28;53.63;99235.69;4968104;28;20104;-90
2022/07/06 06:17:09;;;;;;;13.40;8.50;;;;;;;25.25;54.19;99242.72;4990045;28;20029;-90
2022/07/06 06:19:38;;;;;;;10.05;5.82;;;;;;;25.23;54.39;99247.00;4986638;28;20049;-91
2022/07/06 06:22:12;;;;;;;6.60;5.10;;;;;;;25.24;52.64;99218.31;5008629;28;20025;-93
2022/07/06 06:24:39;;;;;;;8.30;5.32;;;;;;;25.45;52.68;99229.63;5004521;28;20092;-91
2022/07/06 06:27:08;;;;;;;13.00;5.85;;;;;;;25.56;52.96;99241.59;5000627;28;20120;-92
2022/07/06 06:29:41;;;;;;;10.90;5.80;;;;;;;25.60;52.38;99238.88;5001249;28;20052;-91
2022/07/06 06:32:14;;;;;;;6.90;4.80;;;;;;;25.66;51.26;99242.91;5016994;28;20108;-89
2022/07/06 06:34:49;;;;;;;14.65;6.00;;;;;;;25.58;51.65;99219.16;5001465;28;20036;-93
2022/07/06 06:37:15;;;;;;;15.90;8.50;;;;;;;25.55;52.30;99217.97;5011932;28;20021;-91
2022/07/06 06:39:43;;;;;;;14.80;12.13;;;;;;;25.69;51.65;99228.41;5001029;28;20108;-91
2022/07/06 06:42:11;;;;;;;40.78;10.20;;;;;;;25.93;52.40;99245.66;4984201;28;20028;-92
2022/07/06 06:44:43;;;;;;;54.70;8.48;;;;;;;26.07;50.70;99258.84;4984333;28;20038;-95
2022/07/06 06:47:08;;;;;;;20.98;5.20;;;;;;;26.14;49.74;99240.38;4964302;28;20112;-94
2022/07/06 06:50:25;;;;;;;8.82;5.40;;;;;;;26.02;49.71;99218.56;4977772;28;20025;-96
2022/07/06 06:53:03;;;;;;;;;;;;;;;;;;;;;
2022/07/06 06:55:32;;;;;;;11.23;5.90;;;;;;;26.16;49.64;99228.97;4991503;28;20109;-92
2022/07/06 06:57:57;;;;;;;8.40;5.68;;;;;;;26.14;49.83;99226.59;4958333;28;20358;-95
2022/07/06 07:00:27;;;;;;;8.70;5.00;;;;;;;26.25;49.56;99225.91;4981138;28;20037;-95
2022/07/06 07:02:53;;;;;;;8.52;5.55;;;;;;;26.27;49.56;99232.63;4966364;28;20416;-95
2022/07/06 07:05:18;;;;;;;13.00;5.63;;;;;;;26.43;50.33;99243.47;4981568;28;20037;-94
2022/07/06 07:07:44;;;;;;;9.25;5.88;;;;;;;26.44;50.38;99222.16;4965763;28;20158;-96
2022/07/06 07:10:16;;;;;;;7.40;5.13;;;;;;;26.67;48.70;99230.34;4985774;28;20570;-94
2022/07/06 07:12:45;;;;;;;9.95;6.15;;;;;;;26.63;49.65;99212.94;4968523;28;20041;-96
2022/07/06 07:15:11;;;;;;;11.07;5.82;;;;;;;26.69;50.31;99214.97;4965996;28;20030;-95
2022/07/06 07:17:44;;;;;;;5.93;5.00;;;;;;;26.89;48.42;99220.25;4975736;28;20455;-93
2022/07/06 07:20:15;;;;;;;6.72;5.28;;;;;;;26.98;47.99;99229.03;5018621;28;20037;-94
2022/07/06 07:22:41;;;;;;;14.30;6.40;;;;;;;26.99;49.26;99242.44;4985359;28;20109;-95
2022/07/06 07:25:07;;;;;;;7.65;5.95;;;;;;;26.89;48.58;99226.56;4987459;28;20118;-95
2022/07/06 07:27:35;;;;;;;14.40;7.30;;;;;;;27.09;48.39;99237.38;4964153;28;20069;-95
2022/07/06 07:30:01;;;;;;;9.57;5.65;;;;;;;27.12;48.05;99239.38;4947338;28;20121;-94
2022/07/06 07:32:32;;;;;;;12.57;6.47;;;;;;;27.07;48.54;99234.22;4963548;28;20035;-95
2022/07/06 07:34:58;;;;;;;22.92;15.43;;;;;;;27.06;48.55;99233.44;4967994;28;20046;-96
2022/07/06 07:37:37;;;;;;;10.48;6.43;;;;;;;27.44;47.76;99253.47;4972296;28;20038;-96
2022/07/06 07:40:04;;;;;;;9.32;6.25;;;;;;;27.41;47.32;99246.75;4969309;28;20080;-93
2022/07/06 07:42:45;;;;;;;10.23;6.53;;;;;;;27.37;47.78;99234.03;4969143;28;20591;-96
2022/07/06 07:45:14;;;;;;;8.77;5.57;;;;;;;27.27;46.87;99226.47;5001666;28;20033;-92
2022/07/06 07:47:42;;;;;;;11.32;8.93;;;;;;;27.48;46.75;99247.97;4965780;28;20145;-93
2022/07/06 07:50:18;;;;;;;7.78;5.75;;;;;;;27.31;47.00;99228.09;4982595;28;20022;-95
2022/07/06 07:55:37;;;;;;;6.47;5.63;;;;;;;27.17;47.84;99250.09;4972200;28;20046;-91
2022/07/06 07:58:04;;;;;;;6.93;5.38;;;;;;;26.96;47.88;99220.31;4930760;28;20047;-92
2022/07/06 08:00:30;;;;;;;10.32;5.50;;;;;;;26.83;47.65;99225.31;4941058;28;20389;-92
2022/07/06 08:02:55;;;;;;;10.43;5.43;;;;;;;26.92;48.42;99234.09;4947657;28;20022;-92
2022/07/06 08:05:21;;;;;;;8.70;5.10;;;;;;;27.08;47.74;99238.56;4941364;28;20027;-92
2022/07/06 08:07:49;;;;;;;10.77;5.20;;;;;;;27.02;47.68;99213.25;4941821;28;20106;-92
2022/07/06 08:10:15;;;;;;;11.20;6.15;;;;;;;27.15;48.65;99235.84;4959134;28;20057;-90
2022/07/06 08:12:41;;;;;;;10.27;5.80;;;;;;;27.28;47.97;99237.16;4968797;28;20031;-91
2022/07/06 08:15:08;;;;;;;15.45;6.00;;;;;;;27.41;47.54;99241.22;4952804;28;20105;-92
2022/07/06 08:17:34;;;;;;;11.70;5.95;;;;;;;27.42;47.35;99248.31;4948904;29;20027;-94
2022/07/06 08:20:02;;;;;;;9.60;6.03;;;;;;;27.44;48.45;99236.88;5095924;23;20054;-93
2022/07/06 08:22:29;;;;;;;15.23;5.80;;;;;;;27.71;47.53;99233.88;4970016;28;20026;-96
2022/07/06 08:24:55;;;;;;;9.32;5.60;;;;;;;27.84;47.08;99237.88;4979981;28;20157;-95
2022/07/06 08:27:20;;;;;;;11.43;7.47;;;;;;;27.79;47.09;99230.75;4970754;28;20026;-91
2022/07/06 08:29:48;;;;;;;7.00;5.32;;;;;;;27.70;45.50;99224.75;4964085;28;20389;-90
2022/07/06 08:32:16;;;;;;;8.60;5.88;;;;;;;27.53;46.35;99228.22;5000227;28;20049;-94
2022/07/06 08:34:44;;;;;;;9.93;5.80;;;;;;;27.47;46.42;99236.09;5003868;28;20030;-96
2022/07/06 08:37:10;;;;;;;14.25;9.73;;;;;;;27.50;47.07;99240.84;5005048;28;20093;-94
2022/07/06 08:39:35;;;;;;;8.75;6.10;;;;;;;27.20;46.47;99232.72;5002455;28;20045;-94
2022/07/06 08:42:02;;;;;;;10.88;5.60;;;;;;;27.11;46.69;99221.22;5000981;28;20518;-94
2022/07/06 08:44:27;;;;;;;7.10;5.93;;;;;;;27.15;46.71;99217.28;4999417;28;20040;-93
2022/07/06 08:46:53;;;;;;;9.82;5.88;;;;;;;27.17;46.65;99223.22;4980868;28;20022;-90
2022/07/06 08:49:18;;;;;;;9.85;6.00;;;;;;;27.28;46.75;99244.66;5000572;28;20030;-93
2022/07/06 08:51:54;;;;;;;9.38;5.47;;;;;;;27.47;46.12;99249.13;4982751;28;20018;-91
2022/07/06 08:54:19;;;;;;;9.98;5.10;;;;;;;27.27;46.10;99234.75;5003145;28;20021;-92
2022/07/06 08:56:48;;;;;;;6.43;5.70;;;;;;;27.07;47.55;99251.59;4986537;28;20049;-94
2022/07/06 08:59:15;;;;;;;8.15;5.40;;;;;;;27.04;47.17;99252.38;4983359;28;20026;-91
2022/07/06 09:02:23;;;;;;;6.57;4.97;;;;;;;27.01;47.34;99251.13;4965185;28;20141;-91
2022/07/06 09:05:23;;;;;;;9.10;4.85;;;;;;;26.99;47.37;99230.59;4982596;28;20065;-91
2022/07/06 09:07:56;;;;;;;6.90;5.05;;;;;;;27.03;46.68;99245.22;4998746;28;20038;-94
2022/07/06 09:13:33;;;;;;;11.07;7.65;;;;;;;27.31;47.02;99247.47;4994766;28;20044;-93
2022/07/06 09:16:21;;;;;;;11.95;4.68;;;;;;;27.27;45.48;99262.41;4998427;28;20480;-93
2022/07/06 09:18:47;;;;;;;7.40;4.70;;;;;;;27.17;46.21;99237.06;4964285;28;20034;-90
2022/07/06 09:21:31;;;;;;;7.65;5.00;;;;;;;27.15;45.16;99242.16;4985989;28;20514;-93
2022/07/06 09:23:57;;;;;;;9.10;5.28;;;;;;;27.19;45.89;99231.16;4966995;28;20033;-94
2022/07/06 09:26:23;;;;;;;6.65;3.90;;;;;;;27.59;44.81;99252.34;4984300;28;20026;-92
2022/07/06 09:28:49;;;;;;;5.50;3.85;;;;;;;27.66;44.77;99259.91;4972254;28;20042;-95
2022/07/06 09:31:14;;;;;;;8.52;4.75;;;;;;;27.59;45.28;99248.81;4981365;28;20026;-96
2022/07/06 09:34:05;;;;;;;6.72;4.15;;;;;;;27.71;45.36;99259.56;4981066;28;20029;-94
2022/07/06 09:36:39;;;;;;;8.65;4.20;;;;;;;27.45;45.49;99257.81;5010284;28;20128;-94
2022/07/06 09:39:26;;;;;;;5.70;4.40;;;;;;;27.60;44.79;99253.16;4989108;28;20026;-94
2022/07/06 09:42:01;;;;;;;11.30;4.57;;;;;;;27.52;44.96;99238.50;4999514;28;20026;-93
2022/07/06 09:44:36;;;;;;;7.65;4.63;;;;;;;27.41;44.78;99226.56;4987389;28;20529;-92
2022/07/06 09:47:06;;;;;;;9.10;4.78;;;;;;;27.40;45.71;99241.59;4983412;28;20046;-95
2022/07/06 09:49:32;;;;;;;7.20;4.80;;;;;;;27.25;45.76;99240.69;4983281;28;20389;-94
2022/07/06 09:52:00;;;;;;;12.02;5.50;;;;;;;27.17;46.12;99230.75;5001704;28;20038;-93
2022/07/06 09:54:26;;;;;;;8.57;4.78;;;;;;;27.37;44.53;99245.91;4996639;28;20057;-93
2022/07/06 09:56:52;;;;;;;6.82;4.53;;;;;;;27.34;45.06;99243.13;4989765;28;20038;-93
2022/07/06 09:59:22;;;;;;;6.80;4.32;;;;;;;27.20;45.21;99227.19;4973228;28;20129;-92
2022/07/06 10:01:56;;;;;;;15.77;5.05;;;;;;;27.35;44.77;99230.88;4980214;28;20033;-93
2022/07/06 10:04:25;;;;;;;24.27;18.70;;;;;;;27.63;44.57;99223.94;4977951;28;20480;-94
2022/07/06 10:06:50;;;;;;;7.43;4.85;;;;;;;27.85;43.56;99233.94;4994642;28;20041;-93
2022/07/06 10:09:17;;;;;;;13.98;4.47;;;;;;;27.91;43.18;99223.28;4978450;28;20030;-90
2022/07/06 10:12:03;;;;;;;7.57;4.53;;;;;;;28.09;42.91;99212.28;4983798;28;20160;-91
2022/07/06 10:14:30;;;;;;;7.88;5.60;;;;;;;27.96;44.07;99220.16;4964020;28;20045;-93
2022/07/06 10:17:00;;;;;;;8.88;4.40;;;;;;;28.06;42.65;99224.13;4962549;28;20448;-93
2022/07/06 10:19:25;;;;;;;10.75;5.00;;;;;;;28.25;43.32;99217.50;4978544;28;20054;-92
2022/07/06 10:21:51;;;;;;;7.72;5.07;;;;;;;28.58;42.66;99233.00;4963230;28;20030;-94
2022/07/06 10:24:20;;;;;;;7.43;4.18;;;;;;;28.88;41.44;99242.94;4964543;28;20100;-93
2022/07/06 10:26:56;;;;;;;;;;;;;;;;;;;;;
2022/07/06 10:29:24;;;;;;;6.88;3.80;;;;;;;28.98;40.21;99211.66;4972828;28;20106;-93
2022/07/06 10:31:51;;;;;;;5.93;4.53;;;;;;;28.74;40.09;99200.19;4963027;28;20113;-94
2022/07/06 10:34:19;;;;;;;6.70;4.50;;;;;;;28.77;40.32;99223.53;4963071;28;20113;-94
2022/07/06 10:36:48;;;;;;;6.60;3.90;;;;;;;28.79;39.47;99219.16;4979053;28;20026;-96
2022/07/06 10:41:57;;;;;;;7.85;5.90;;;;;;;29.05;40.18;99208.84;4969206;28;20067;-95
2022/07/06 10:44:30;;;;;;;10.50;6.35;;;;;;;29.25;40.40;99194.63;4966413;28;20556;-94
2022/07/06 10:47:19;;;;;;;7.90;4.53;;;;;;;29.31;40.24;99204.13;4982005;28;20477;-95
2022/07/06 10:49:50;;;;;;;8.90;4.70;;;;;;;29.40;39.51;99207.25;4992441;28;20492;-94
2022/07/06 10:52:27;;;;;;;6.65;4.47;;;;;;;29.29;40.17;99198.97;4969842;28;20404;-94
2022/07/06 10:55:15;;;;;;;;;;;;;;;;;;;;;
2022/07/06 10:57:56;;;;;;;9.65;4.55;;;;;;;29.41;39.56;99192.97;5007000;28;20100;-93
2022/07/06 11:00:24;;;;;;;7.80;4.88;;;;;;;29.24;39.25;99191.06;4985499;28;20022;-93
2022/07/06 11:03:28;;;;;;;9.50;5.95;;;;;;;29.56;39.56;99204.81;4997468;28;20034;-93
2022/07/06 11:06:13;;;;;;;10.38;5.18;;;;;;;29.65;39.54;99203.63;4966069;28;20039;-91
2022/07/06 11:08:55;;;;;;;10.73;5.07;;;;;;;29.67;38.61;99195.69;4985282;28;20022;-91
2022/07/06 11:11:27;;;;;;;10.88;7.38;;;;;;;29.91;37.94;99213.47;4986502;28;20098;-90
2022/07/06 11:13:58;;;;;;;6.40;4.25;;;;;;;30.04;37.90;99191.59;4994317;28;20451;-91
2022/07/06 11:16:26;;;;;;;8.77;4.00;;;;;;;30.27;37.19;99208.50;4983248;28;20061;-93
2022/07/06 11:19:33;;;;;;;7.53;4.03;;;;;;;30.37;36.96;99204.13;4985136;28;20026;-94
2022/07/06 11:22:10;;;;;;;8.05;4.20;;;;;;;30.10;36.55;99206.63;5021860;28;20042;-95
2022/07/06 11:24:57;;;;;;;8.10;4.00;;;;;;;30.07;37.64;99210.19;5006823;28;20041;-93
2022/07/06 11:27:26;;;;;;;12.30;4.88;;;;;;;30.18;38.62;99213.72;5021514;28;20514;-96
2022/07/06 11:29:54;;;;;;;6.53;4.53;;;;;;;30.15;37.98;99212.56;5004098;28;20038;-92
2022/07/06 11:32:24;;;;;;;5.82;4.18;;;;;;;30.15;36.94;99203.41;5002515;28;20030;-91
2022/07/06 11:34:51;;;;;;;7.35;4.30;;;;;;;29.86;38.04;99195.22;5017976;28;20108;-94
2022/07/06 11:37:23;;;;;;;7.38;3.97;;;;;;;29.95;38.66;99197.59;5017709;28;20029;-94
2022/07/06 11:39:57;;;;;;;8.48;4.30;;;;;;;29.86;39.04;99175.00;5003869;28;20037;-94
2022/07/06 11:42:44;;;;;;;8.07;4.78;;;;;;;29.92;39.71;99196.38;5011925;28;20360;-95
2022/07/06 11:48:31;;;;;;;8.60;5.45;;;;;;;29.77;39.83;99190.09;4976807;28;20065;-93
2022/07/06 11:51:07;;;;;;;8.18;5.22;;;;;;;29.90;39.44;99182.13;4983821;28;20121;-90
2022/07/06 11:53:59;;;;;;;5.18;3.95;;;;;;;30.04;37.48;99197.13;4982625;28;20093;-94
2022/07/06 11:56:26;;;;;;;6.55;4.63;;;;;;;29.93;37.86;99191.63;4918486;29;20032;-96
2022/07/06 11:58:59;;;;;;;4.85;3.80;;;;;;;29.78;37.32;99175.03;4969859;28;20046;-93
2022/07/06 12:01:28;;;;;;;4.43;3.88;;;;;;;29.65;38.02;99187.75;5001651;28;20522;-91
2022/07/06 12:04:03;;;;;;;6.07;4.53;;;;;;;29.55;38.43;99177.47;4978960;28;20049;-91
2022/07/06 12:07:05;;;;;;;6.82;4.20;;;;;;;29.31;39.48;99174.38;4972294;28;20022;-95
2022/07/06 12:10:06;;;;;;;6.90;4.15;;;;;;;29.27;39.27;99167.28;4953363;28;20555;-96
2022/07/06 12:13:38;;;;;;;7.30;3.95;;;;;;;29.45;39.37;99164.44;4893920;29;20480;-95